Terminal Aerodrome Forecast
Issued by NWS Grand Forks, ND

Home | Current Version | Previous Version | Graphics & Text | Print | Product List | Glossary On
Versions: 1 2 3 4 5 6 7 8 9 10 11 12 13 14 15 16 17 18 19 20
000
FTUS43 KFGF 281706 AAB
TAFFAR
TAF AMD
KFAR 281706Z 2817/2912 25017G27KT P6SM SCT025 BKN250
     FM282100 24025G35KT P6SM SCT040
     FM290600 24022G30KT P6SM BKN035=

USA.gov is the U.S. government's official web portal to all federal, state and local government web resources and services.